Time;durP1;ratioP1;P1;durP2;ratioP2;P2;SDS_P1;SDS_P2;PMS_P1;PMS_P2;Temp;Humidity;BMP_temperature;BMP_pressure;BME280_temperature;BME280_humidity;BME280_pressure;Samples;Min_cycle;Max_cycle;Signal;HPM_P1;HPM_P2
2021/12/29 00:02:15;;;;;;;2.95;1.85;;;8.80;99.90;;;;;;5036240;28;20194;-80
2021/12/29 00:04:42;;;;;;;4.03;2.13;;;8.80;99.90;;;;;;5037454;28;20195;-80
2021/12/29 00:07:10;;;;;;;2.15;1.70;;;8.80;99.90;;;;;;5037421;28;20203;-79
2021/12/29 00:09:39;;;;;;;8.23;1.48;;;8.80;99.90;;;;;;5036653;28;20591;-80
2021/12/29 00:12:08;;;;;;;1.45;1.30;;;8.80;99.90;;;;;;5036424;28;20211;-80
2021/12/29 00:14:36;;;;;;;1.23;1.13;;;8.80;99.90;;;;;;5036435;28;20205;-79
2021/12/29 00:17:03;;;;;;;5.93;4.03;;;8.70;99.90;;;;;;5036765;28;20545;-80
2021/12/29 00:19:30;;;;;;;0.75;0.75;;;8.80;99.90;;;;;;5036573;28;20225;-80
2021/12/29 00:21:57;;;;;;;1.30;0.52;;;8.70;99.90;;;;;;5036331;28;20195;-81
2021/12/29 00:24:24;;;;;;;0.50;0.50;;;8.70;99.90;;;;;;5036286;28;20668;-80
2021/12/29 00:26:51;;;;;;;0.50;0.50;;;8.80;99.90;;;;;;5037086;28;20205;-80
2021/12/29 00:29:19;;;;;;;0.40;0.30;;;8.80;99.90;;;;;;5036242;28;20229;-81
2021/12/29 00:31:46;;;;;;;0.40;0.40;;;8.80;99.90;;;;;;5036863;28;20202;-80
2021/12/29 00:34:12;;;;;;;2.58;0.93;;;8.80;99.90;;;;;;5036368;28;20574;-80
2021/12/29 00:36:39;;;;;;;2.90;2.78;;;8.80;99.90;;;;;;5036697;28;20202;-79
2021/12/29 00:39:06;;;;;;;1.23;1.13;;;8.80;99.90;;;;;;5035847;28;20198;-80
2021/12/29 00:41:33;;;;;;;3.50;2.15;;;8.80;99.90;;;;;;5035742;28;20203;-80
2021/12/29 00:43:59;;;;;;;1.48;1.38;;;8.80;99.90;;;;;;5036148;28;20198;-80
2021/12/29 00:46:28;;;;;;;1.80;1.55;;;8.80;99.90;;;;;;5036511;28;20665;-80
2021/12/29 00:48:54;;;;;;;1.48;1.38;;;8.70;99.90;;;;;;5035862;28;20214;-79
2021/12/29 00:51:21;;;;;;;1.27;1.23;;;8.80;99.90;;;;;;5035741;28;20226;-80
2021/12/29 00:53:48;;;;;;;0.50;0.45;;;8.70;99.90;;;;;;5035901;28;20203;-80
2021/12/29 00:56:15;;;;;;;0.55;0.52;;;8.70;99.90;;;;;;5036011;28;20202;-78
2021/12/29 00:58:42;;;;;;;0.52;0.52;;;8.70;99.90;;;;;;5035179;28;20686;-80
2021/12/29 01:01:08;;;;;;;1.20;1.20;;;8.80;99.90;;;;;;5034634;28;20222;-80
2021/12/29 01:03:38;;;;;;;1.60;1.35;;;8.80;99.90;;;;;;5036351;28;20561;-78
2021/12/29 01:06:05;;;;;;;0.98;0.50;;;8.80;99.90;;;;;;5036147;28;20205;-80
2021/12/29 01:08:32;;;;;;;1.27;1.25;;;8.70;99.90;;;;;;5035869;28;20200;-80
2021/12/29 01:10:59;;;;;;;5.47;0.90;;;8.70;99.90;;;;;;5036012;28;20232;-79
2021/12/29 01:13:30;;;;;;;2.05;1.85;;;8.70;99.90;;;;;;5035941;28;20204;-81
2021/12/29 01:16:15;;;;;;;0.40;0.40;;;8.70;99.90;;;;;;5036069;28;20269;-80
2021/12/29 01:18:44;;;;;;;0.60;0.52;;;8.70;99.90;;;;;;5035491;28;20187;-79
2021/12/29 01:21:11;;;;;;;0.68;0.68;;;8.80;99.90;;;;;;5034677;28;20218;-80
2021/12/29 01:23:38;;;;;;;1.40;1.30;;;8.70;99.90;;;;;;5035620;28;20209;-78
2021/12/29 01:26:05;;;;;;;1.13;1.05;;;8.80;99.90;;;;;;5035499;28;20209;-79
2021/12/29 01:28:31;;;;;;;0.40;0.40;;;8.80;99.90;;;;;;5035224;28;20206;-79
2021/12/29 01:30:58;;;;;;;3.83;3.40;;;8.80;99.90;;;;;;5035131;28;20229;-79
2021/12/29 01:33:25;;;;;;;1.48;1.40;;;8.70;99.90;;;;;;5035513;28;20206;-80
2021/12/29 01:35:53;;;;;;;2.40;2.25;;;8.70;99.90;;;;;;5035555;28;20205;-80
2021/12/29 01:38:20;;;;;;;0.40;0.30;;;8.70;99.90;;;;;;5036097;28;20198;-80
2021/12/29 01:40:49;;;;;;;0.40;0.40;;;8.70;99.90;;;;;;5034268;28;20628;-81
2021/12/29 01:43:17;;;;;;;0.40;0.30;;;8.70;99.90;;;;;;5035779;28;20205;-79
2021/12/29 01:45:44;;;;;;;6.68;1.83;;;8.70;99.90;;;;;;5035250;28;20580;-80
2021/12/29 01:48:11;;;;;;;1.90;1.80;;;8.70;99.90;;;;;;5035620;28;20432;-80
2021/12/29 01:50:40;;;;;;;0.43;0.38;;;8.70;99.90;;;;;;5035695;28;20234;-79
2021/12/29 01:53:10;;;;;;;0.68;0.68;;;8.70;99.90;;;;;;5036229;28;20244;-80
2021/12/29 01:55:38;;;;;;;0.98;0.60;;;8.70;99.90;;;;;;5035688;28;20202;-78
2021/12/29 01:58:06;;;;;;;0.40;0.30;;;8.70;99.90;;;;;;5035808;28;20554;-80
2021/12/29 02:00:35;;;;;;;1.13;0.93;;;8.70;99.90;;;;;;5034255;28;20222;-80
2021/12/29 02:03:02;;;;;;;0.40;0.30;;;8.80;99.90;;;;;;5034966;28;20195;-80
2021/12/29 02:05:29;;;;;;;1.13;1.10;;;8.80;99.90;;;;;;5036037;28;20203;-79
2021/12/29 02:07:56;;;;;;;0.65;0.65;;;8.80;99.90;;;;;;5035594;28;20202;-80
2021/12/29 02:10:24;;;;;;;0.40;0.30;;;8.80;99.90;;;;;;5035355;28;20296;-80
2021/12/29 02:12:51;;;;;;;1.80;1.63;;;8.80;99.90;;;;;;5037441;28;20256;-78
2021/12/29 02:15:18;;;;;;;1.80;1.70;;;8.80;99.90;;;;;;5039750;28;20202;-80
2021/12/29 02:17:45;;;;;;;0.40;0.30;;;8.80;99.90;;;;;;5040014;28;20217;-80
2021/12/29 02:20:14;;;;;;;0.40;0.40;;;8.80;99.90;;;;;;5038982;28;20256;-78
2021/12/29 02:22:44;;;;;;;0.50;0.50;;;8.80;99.90;;;;;;5038614;28;20685;-80
2021/12/29 02:25:34;;;;;;;0.40;0.40;;;8.80;99.90;;;;;;5039820;28;20207;-80
2021/12/29 02:28:02;;;;;;;1.25;1.15;;;8.80;99.90;;;;;;5038758;28;20741;-80
2021/12/29 02:30:28;;;;;;;0.47;0.47;;;8.80;99.90;;;;;;5038948;28;20226;-80
2021/12/29 02:32:58;;;;;;;0.90;0.75;;;8.80;99.90;;;;;;5038911;28;20197;-80
2021/12/29 02:35:26;;;;;;;0.40;0.40;;;8.80;99.90;;;;;;5038946;28;20207;-80
2021/12/29 02:37:53;;;;;;;0.50;0.45;;;8.80;99.90;;;;;;5039406;28;20194;-79
2021/12/29 02:40:20;;;;;;;9.38;1.98;;;8.80;99.90;;;;;;5038416;28;20233;-80
2021/12/29 02:42:47;;;;;;;0.40;0.40;;;8.80;99.90;;;;;;5038953;28;20576;-80
2021/12/29 02:45:18;;;;;;;0.85;0.85;;;8.80;99.90;;;;;;5038072;28;20592;-77
2021/12/29 02:47:44;;;;;;;0.50;0.50;;;8.80;99.90;;;;;;5038588;28;20204;-80
2021/12/29 02:50:14;;;;;;;1.42;1.40;;;8.80;99.90;;;;;;5037721;28;20227;-80
2021/12/29 02:52:44;;;;;;;1.27;0.90;;;8.80;99.90;;;;;;5037783;28;20285;-79
2021/12/29 02:55:12;;;;;;;2.88;2.10;;;8.80;99.90;;;;;;5038364;28;20212;-80
2021/12/29 02:57:39;;;;;;;1.30;1.08;;;8.80;99.90;;;;;;5038844;28;20206;-80
2021/12/29 03:00:07;;;;;;;2.20;2.10;;;8.80;99.90;;;;;;5037958;28;20715;-78
2021/12/29 03:02:34;;;;;;;1.50;1.10;;;8.80;99.90;;;;;;5039112;28;20205;-80
2021/12/29 03:05:02;;;;;;;0.88;0.88;;;8.80;99.90;;;;;;5038711;28;20197;-79
2021/12/29 03:07:29;;;;;;;1.40;1.30;;;8.80;99.90;;;;;;5038306;28;20214;-79
2021/12/29 03:09:57;;;;;;;0.80;0.80;;;8.80;99.90;;;;;;5038027;28;20227;-79
2021/12/29 03:12:24;;;;;;;0.40;0.30;;;8.80;99.90;;;;;;5039830;28;20201;-80
2021/12/29 03:14:52;;;;;;;1.00;1.00;;;8.80;99.90;;;;;;5038363;28;20206;-80
2021/12/29 03:17:19;;;;;;;0.40;0.30;;;8.80;99.90;;;;;;5038776;28;20290;-77
2021/12/29 03:19:46;;;;;;;0.80;0.80;;;8.80;99.90;;;;;;5037675;28;20577;-80
2021/12/29 03:22:13;;;;;;;2.88;2.78;;;8.80;99.90;;;;;;5038319;28;20203;-80
2021/12/29 03:24:40;;;;;;;0.40;0.30;;;8.80;99.90;;;;;;5037281;28;20249;-79
2021/12/29 03:27:08;;;;;;;0.40;0.40;;;8.80;99.90;;;;;;5038193;28;20202;-79
2021/12/29 03:29:35;;;;;;;2.17;2.08;;;8.80;99.90;;;;;;5036510;28;20250;-80
2021/12/29 03:32:06;;;;;;;1.35;1.25;;;8.80;99.90;;;;;;5038109;28;20596;-80
2021/12/29 03:34:33;;;;;;;0.40;0.30;;;8.80;99.90;;;;;;5037737;28;20198;-79
2021/12/29 03:37:00;;;;;;;0.68;0.68;;;8.80;99.90;;;;;;5037618;28;20868;-80
2021/12/29 03:39:27;;;;;;;0.55;0.50;;;8.80;99.90;;;;;;5036683;28;20233;-80
2021/12/29 03:41:54;;;;;;;1.85;1.75;;;8.80;99.90;;;;;;5037338;28;20187;-80
2021/12/29 03:44:22;;;;;;;0.65;0.65;;;8.80;99.90;;;;;;5037673;28;20202;-80
2021/12/29 03:46:49;;;;;;;0.93;0.93;;;8.80;99.90;;;;;;5037764;28;20205;-80
2021/12/29 03:49:16;;;;;;;1.65;1.63;;;8.70;99.90;;;;;;5036448;28;20206;-80
2021/12/29 03:51:43;;;;;;;1.80;1.65;;;8.80;99.90;;;;;;5037481;28;20203;-80
2021/12/29 03:54:10;;;;;;;4.22;2.50;;;8.80;99.90;;;;;;5035993;28;20201;-80
2021/12/29 03:56:36;;;;;;;1.27;1.27;;;8.70;99.90;;;;;;5036594;28;20220;-80
2021/12/29 03:59:03;;;;;;;0.82;0.82;;;8.70;99.90;;;;;;5035580;28;20202;-80
2021/12/29 04:01:31;;;;;;;0.70;0.50;;;8.70;99.90;;;;;;5036079;28;20198;-80
2021/12/29 04:03:58;;;;;;;0.40;0.38;;;8.70;99.90;;;;;;5035715;28;20198;-79
2021/12/29 04:06:25;;;;;;;0.40;0.30;;;8.70;99.90;;;;;;5036008;28;20202;-79
2021/12/29 04:08:52;;;;;;;0.40;0.40;;;8.70;99.90;;;;;;5035598;28;20570;-79
2021/12/29 04:11:20;;;;;;;6.28;2.63;;;8.70;99.90;;;;;;5035567;28;20327;-80
2021/12/29 04:13:47;;;;;;;2.40;1.92;;;8.70;99.90;;;;;;5035843;28;20198;-80
2021/12/29 04:16:17;;;;;;;0.82;0.82;;;8.70;99.90;;;;;;5036161;28;20201;-77
2021/12/29 04:19:05;;;;;;;1.95;1.85;;;8.70;99.90;;;;;;5035674;28;20197;-78
2021/12/29 04:21:33;;;;;;;0.82;0.82;;;8.60;99.90;;;;;;5036116;28;20190;-80
2021/12/29 04:24:00;;;;;;;3.08;2.05;;;8.60;99.90;;;;;;5036183;28;20572;-79
2021/12/29 04:26:27;;;;;;;0.60;0.60;;;8.60;99.90;;;;;;5036367;28;20206;-78
2021/12/29 04:28:53;;;;;;;1.40;0.70;;;8.60;99.90;;;;;;5041330;28;20225;-78
2021/12/29 04:31:20;;;;;;;1.67;0.98;;;8.60;99.90;;;;;;5035522;28;20226;-79
2021/12/29 04:33:49;;;;;;;0.40;0.30;;;8.60;99.90;;;;;;5035515;28;20203;-80
2021/12/29 04:36:23;;;;;;;1.23;1.13;;;8.60;99.90;;;;;;5035547;28;20664;-78
2021/12/29 04:38:50;;;;;;;0.40;0.30;;;8.60;99.90;;;;;;5035419;28;20208;-79
2021/12/29 04:41:17;;;;;;;0.77;0.77;;;8.50;99.90;;;;;;5034868;28;20221;-80
2021/12/29 04:43:44;;;;;;;0.80;0.57;;;8.50;99.90;;;;;;5034914;28;20199;-80
2021/12/29 04:46:14;;;;;;;0.90;0.88;;;8.50;99.90;;;;;;5035154;28;20212;-80
2021/12/29 04:48:47;;;;;;;0.40;0.30;;;8.50;99.90;;;;;;5034998;28;20212;-80
2021/12/29 04:51:22;;;;;;;0.40;0.40;;;8.50;99.90;;;;;;5035154;28;20232;-80
2021/12/29 04:53:49;;;;;;;0.40;0.30;;;8.50;99.90;;;;;;5035733;28;20200;-80
2021/12/29 04:56:16;;;;;;;0.75;0.73;;;8.50;99.90;;;;;;5035440;28;20212;-77
2021/12/29 04:58:44;;;;;;;0.40;0.30;;;8.50;99.90;;;;;;5035116;28;20210;-80
2021/12/29 05:01:10;;;;;;;0.40;0.40;;;8.50;99.90;;;;;;5040608;28;20628;-79
2021/12/29 05:03:38;;;;;;;7.28;1.90;;;8.50;99.90;;;;;;5035839;28;20194;-80
2021/12/29 05:08:47;;;;;;;1.40;1.30;;;8.50;99.90;;;;;;5038690;28;20201;-78
2021/12/29 05:11:15;;;;;;;2.88;2.67;;;8.50;99.90;;;;;;5035905;28;20217;-80
2021/12/29 05:13:44;;;;;;;0.40;0.40;;;8.50;99.90;;;;;;5037485;28;20194;-80
2021/12/29 05:16:11;;;;;;;0.40;0.40;;;8.60;99.90;;;;;;5038620;28;20213;-79
2021/12/29 05:18:39;;;;;;;1.30;0.40;;;8.50;99.90;;;;;;5036303;28;20199;-79
2021/12/29 05:21:08;;;;;;;5.28;1.95;;;8.60;99.90;;;;;;5036144;28;20585;-80
2021/12/29 05:23:35;;;;;;;0.60;0.60;;;8.60;99.90;;;;;;5035420;28;20686;-79
2021/12/29 05:26:04;;;;;;;0.90;0.90;;;8.60;99.90;;;;;;5035808;28;20199;-80
2021/12/29 05:28:31;;;;;;;0.40;0.30;;;8.60;99.90;;;;;;5035155;28;20205;-79
2021/12/29 05:30:58;;;;;;;0.88;0.88;;;8.60;99.90;;;;;;5035197;28;20218;-80
2021/12/29 05:33:25;;;;;;;0.40;0.40;;;8.60;99.90;;;;;;5035012;28;20202;-80
2021/12/29 05:35:52;;;;;;;0.50;0.43;;;8.60;99.90;;;;;;5035329;28;20216;-80
2021/12/29 05:38:20;;;;;;;0.40;0.40;;;8.60;99.90;;;;;;5035034;28;20663;-78
2021/12/29 05:40:48;;;;;;;4.32;2.80;;;8.60;99.90;;;;;;5034169;28;20609;-81
2021/12/29 05:43:16;;;;;;;0.68;0.68;;;8.60;99.90;;;;;;5034656;28;20201;-80
2021/12/29 05:45:43;;;;;;;0.50;0.45;;;8.60;99.90;;;;;;5034500;28;20198;-80
2021/12/29 05:48:10;;;;;;;0.70;0.70;;;8.60;99.90;;;;;;5036954;28;20194;-80
2021/12/29 05:50:37;;;;;;;1.02;1.02;;;8.60;99.90;;;;;;5038455;28;20226;-80
2021/12/29 05:53:05;;;;;;;0.40;0.40;;;8.60;99.90;;;;;;5039143;28;20546;-79
2021/12/29 05:55:31;;;;;;;1.45;1.35;;;8.60;99.90;;;;;;5038675;28;20205;-80
2021/12/29 05:57:58;;;;;;;1.63;1.58;;;8.60;99.90;;;;;;5039499;28;20202;-81
2021/12/29 06:00:28;;;;;;;0.40;0.30;;;8.50;99.90;;;;;;5037915;28;20213;-80
2021/12/29 06:02:55;;;;;;;0.88;0.88;;;8.50;99.90;;;;;;5038726;28;20206;-79
2021/12/29 06:05:23;;;;;;;0.40;0.30;;;8.50;99.90;;;;;;5039014;28;20208;-80
2021/12/29 06:07:50;;;;;;;0.43;0.40;;;8.50;99.90;;;;;;5038798;28;20214;-80
2021/12/29 06:10:16;;;;;;;0.50;0.40;;;8.50;99.90;;;;;;5038485;28;20218;-79
2021/12/29 06:12:43;;;;;;;1.88;0.60;;;8.50;99.90;;;;;;5038911;28;20199;-80
2021/12/29 06:15:11;;;;;;;1.63;1.52;;;8.40;99.90;;;;;;5037921;28;20568;-80
2021/12/29 06:17:39;;;;;;;0.40;0.30;;;8.40;99.90;;;;;;5038318;28;20198;-81
2021/12/29 06:20:09;;;;;;;0.40;0.30;;;8.40;99.90;;;;;;5037935;28;20223;-81
2021/12/29 06:22:36;;;;;;;0.40;0.40;;;8.50;99.90;;;;;;5037944;28;20194;-80
2021/12/29 06:25:04;;;;;;;0.50;0.50;;;8.50;99.90;;;;;;5038376;28;20202;-80
2021/12/29 06:27:32;;;;;;;0.60;0.60;;;8.50;99.90;;;;;;5037809;28;20561;-81
2021/12/29 06:29:59;;;;;;;0.40;0.30;;;8.60;99.90;;;;;;5037030;28;20219;-79
2021/12/29 06:32:26;;;;;;;0.40;0.40;;;8.60;99.90;;;;;;5037953;28;20199;-80
2021/12/29 06:34:55;;;;;;;2.08;1.98;;;8.50;99.90;;;;;;5036429;28;20218;-80
2021/12/29 06:37:22;;;;;;;0.40;0.30;;;8.50;99.90;;;;;;5039909;28;20201;-80
2021/12/29 06:39:49;;;;;;;1.05;1.05;;;8.50;99.90;;;;;;5055824;28;20221;-79
2021/12/29 06:42:17;;;;;;;2.13;2.03;;;8.50;99.90;;;;;;5044388;28;20195;-81
2021/12/29 06:44:45;;;;;;;0.40;0.40;;;8.50;99.90;;;;;;5038726;28;20196;-80
2021/12/29 06:47:12;;;;;;;1.95;1.85;;;8.60;99.90;;;;;;5037041;28;20203;-80
2021/12/29 06:49:39;;;;;;;0.60;0.60;;;8.60;99.90;;;;;;5036345;28;20745;-79
2021/12/29 06:52:08;;;;;;;0.60;0.60;;;8.50;99.90;;;;;;5036746;28;20695;-79
2021/12/29 06:54:35;;;;;;;2.70;2.47;;;8.60;99.90;;;;;;5036555;28;20194;-79
2021/12/29 06:57:02;;;;;;;0.40;0.30;;;8.60;99.90;;;;;;5037561;28;20198;-80
2021/12/29 06:59:29;;;;;;;0.70;0.70;;;8.60;99.90;;;;;;5035089;28;20214;-79
2021/12/29 07:01:56;;;;;;;2.65;2.55;;;8.60;99.90;;;;;;5037185;28;20193;-81
2021/12/29 07:04:23;;;;;;;0.40;0.30;;;8.60;99.90;;;;;;5037268;28;20200;-81
2021/12/29 07:06:50;;;;;;;0.40;0.30;;;8.60;99.90;;;;;;5037466;28;20252;-81
2021/12/29 07:09:19;;;;;;;0.63;0.63;;;8.60;99.90;;;;;;5036211;28;20201;-79
2021/12/29 07:11:46;;;;;;;0.45;0.43;;;8.60;99.90;;;;;;5037252;28;20677;-79
2021/12/29 07:14:13;;;;;;;1.67;1.58;;;8.60;99.90;;;;;;5036742;28;20208;-80
2021/12/29 07:16:43;;;;;;;0.40;0.30;;;8.60;99.90;;;;;;5037517;28;20209;-81
2021/12/29 07:19:10;;;;;;;4.05;3.75;;;8.60;99.90;;;;;;5036719;28;20232;-79
2021/12/29 07:21:37;;;;;;;0.40;0.30;;;8.60;99.90;;;;;;5036839;28;20198;-80
2021/12/29 07:24:04;;;;;;;0.50;0.50;;;8.60;99.90;;;;;;5036995;28;20198;-80
2021/12/29 07:26:33;;;;;;;0.80;0.80;;;8.60;99.90;;;;;;5036332;28;20205;-79
2021/12/29 07:28:59;;;;;;;1.67;1.25;;;8.60;99.90;;;;;;5036253;28;20194;-79
2021/12/29 07:31:27;;;;;;;1.67;1.58;;;8.60;99.90;;;;;;5044757;28;20223;-81
2021/12/29 07:33:54;;;;;;;5.75;2.05;;;8.60;99.90;;;;;;5037400;28;20193;-81
2021/12/29 07:36:21;;;;;;;0.50;0.50;;;8.60;99.90;;;;;;5036984;28;20208;-80
2021/12/29 07:38:48;;;;;;;2.67;1.52;;;8.60;99.90;;;;;;5035195;28;20210;-80
2021/12/29 07:41:15;;;;;;;0.60;0.60;;;8.60;99.90;;;;;;5035359;28;20226;-82
2021/12/29 07:43:44;;;;;;;0.40;0.30;;;8.60;99.90;;;;;;5035434;28;20203;-79
2021/12/29 07:46:12;;;;;;;4.22;2.33;;;8.60;99.90;;;;;;5035623;28;20200;-82
2021/12/29 07:48:39;;;;;;;8.13;1.67;;;8.60;99.90;;;;;;5035305;28;20620;-79
2021/12/29 07:51:07;;;;;;;1.48;1.38;;;8.60;99.90;;;;;;5035095;28;20217;-81
2021/12/29 07:53:37;;;;;;;4.43;3.70;;;8.60;99.90;;;;;;5036160;28;20202;-82
2021/12/29 07:56:05;;;;;;;0.50;0.50;;;8.60;99.90;;;;;;5034744;28;20280;-81
2021/12/29 07:58:32;;;;;;;0.40;0.30;;;8.60;99.90;;;;;;5035177;28;20249;-82
2021/12/29 08:01:01;;;;;;;2.10;1.92;;;8.60;99.90;;;;;;5034214;28;20221;-81
2021/12/29 08:03:27;;;;;;;2.45;2.35;;;8.60;99.90;;;;;;5034908;28;20198;-81
2021/12/29 08:05:55;;;;;;;1.65;1.55;;;8.60;99.90;;;;;;5035334;28;20565;-80
2021/12/29 08:08:22;;;;;;;1.15;1.05;;;8.60;99.90;;;;;;5035575;28;20202;-80
2021/12/29 08:10:49;;;;;;;4.10;1.38;;;8.60;99.90;;;;;;5034367;28;20233;-82
2021/12/29 08:13:16;;;;;;;1.48;1.25;;;8.60;99.90;;;;;;5035981;28;20577;-82
2021/12/29 08:15:43;;;;;;;3.45;3.15;;;8.60;99.90;;;;;;5034839;28;20202;-81
2021/12/29 08:18:11;;;;;;;2.05;0.88;;;8.60;99.90;;;;;;5035790;28;20203;-81
2021/12/29 08:20:38;;;;;;;1.38;1.30;;;8.60;99.90;;;;;;5034890;28;20341;-80
2021/12/29 08:23:06;;;;;;;0.50;0.50;;;8.60;99.90;;;;;;5035225;28;20205;-82
2021/12/29 08:25:33;;;;;;;1.40;1.30;;;8.60;99.90;;;;;;5034198;28;20197;-83
2021/12/29 08:28:00;;;;;;;2.35;1.05;;;8.60;99.90;;;;;;5040539;28;20198;-81
2021/12/29 08:30:27;;;;;;;0.80;0.80;;;8.60;99.90;;;;;;5034185;28;20223;-81
2021/12/29 08:32:54;;;;;;;0.80;0.77;;;8.60;99.90;;;;;;5034088;28;20225;-81
2021/12/29 08:35:23;;;;;;;1.60;1.58;;;8.60;99.90;;;;;;5034647;28;20209;-81
2021/12/29 08:37:51;;;;;;;0.95;0.93;;;8.60;99.90;;;;;;5034159;28;20209;-81
2021/12/29 08:40:18;;;;;;;0.40;0.30;;;8.70;99.90;;;;;;5033571;28;20230;-81
2021/12/29 08:42:47;;;;;;;0.40;0.30;;;8.70;99.90;;;;;;5034200;28;20205;-82
2021/12/29 08:45:15;;;;;;;11.52;8.88;;;8.70;99.90;;;;;;5033875;28;20572;-80
2021/12/29 08:47:43;;;;;;;5.65;5.18;;;8.70;99.90;;;;;;5034356;28;20202;-79
2021/12/29 08:50:13;;;;;;;4.13;3.00;;;8.70;99.90;;;;;;5033938;28;20225;-79
2021/12/29 08:52:42;;;;;;;1.80;1.70;;;8.70;99.90;;;;;;5034169;28;20604;-83
2021/12/29 08:55:10;;;;;;;1.95;1.85;;;8.70;99.90;;;;;;5033713;28;20666;-81
2021/12/29 08:57:37;;;;;;;0.98;0.98;;;8.70;99.90;;;;;;5034169;28;20202;-81
2021/12/29 09:00:07;;;;;;;8.18;7.18;;;8.70;99.90;;;;;;5033794;28;20214;-80
2021/12/29 09:02:33;;;;;;;0.93;0.93;;;8.80;99.90;;;;;;5033445;28;20221;-82
2021/12/29 09:05:00;;;;;;;0.75;0.75;;;8.80;99.90;;;;;;5033753;28;20205;-79
2021/12/29 09:07:27;;;;;;;0.40;0.30;;;8.80;99.90;;;;;;5033474;28;20194;-80
2021/12/29 09:09:55;;;;;;;3.75;2.75;;;8.90;99.90;;;;;;5033285;28;20230;-80
2021/12/29 09:12:22;;;;;;;1.80;1.13;;;9.00;99.90;;;;;;5033984;28;20247;-81
2021/12/29 09:14:48;;;;;;;1.38;1.27;;;8.90;99.90;;;;;;5036123;28;20212;-81
2021/12/29 09:17:16;;;;;;;3.72;0.77;;;8.90;99.90;;;;;;5045416;28;20632;-81
2021/12/29 09:19:44;;;;;;;1.42;1.33;;;8.90;99.90;;;;;;5053452;28;20222;-81
2021/12/29 09:22:12;;;;;;;1.50;0.73;;;9.00;99.90;;;;;;5053370;28;20201;-82
2021/12/29 09:24:39;;;;;;;5.70;3.60;;;8.90;99.90;;;;;;5053329;28;20631;-82
2021/12/29 09:27:07;;;;;;;0.40;0.30;;;8.90;99.90;;;;;;5053264;28;20677;-80
2021/12/29 09:29:35;;;;;;;0.70;0.70;;;8.90;99.90;;;;;;5052875;28;20218;-81
2021/12/29 09:32:02;;;;;;;2.28;1.35;;;8.90;99.90;;;;;;5053081;28;20647;-81
2021/12/29 09:34:28;;;;;;;1.23;1.17;;;8.90;99.90;;;;;;5053363;28;20194;-80
2021/12/29 09:36:55;;;;;;;4.60;1.52;;;8.80;99.90;;;;;;5053239;28;20200;-82
2021/12/29 09:39:22;;;;;;;1.77;1.67;;;8.90;99.90;;;;;;5052820;28;20209;-81
2021/12/29 09:41:49;;;;;;;3.25;3.05;;;8.80;99.90;;;;;;5053002;28;20199;-81
2021/12/29 09:44:17;;;;;;;3.80;1.50;;;8.90;99.90;;;;;;5053438;28;20206;-79
2021/12/29 09:46:44;;;;;;;1.90;1.40;;;8.90;99.90;;;;;;5053474;28;20204;-79
2021/12/29 09:49:11;;;;;;;0.40;0.30;;;8.90;99.90;;;;;;5052636;28;20202;-80
2021/12/29 09:51:38;;;;;;;7.07;2.13;;;8.90;99.90;;;;;;5053184;28;20224;-80
2021/12/29 09:54:05;;;;;;;6.28;3.47;;;8.90;99.90;;;;;;5052077;28;20277;-80
2021/12/29 09:56:32;;;;;;;0.95;0.95;;;9.00;99.90;;;;;;5044463;28;20655;-80
2021/12/29 09:58:59;;;;;;;1.85;1.10;;;9.00;99.90;;;;;;5052758;28;20200;-79
2021/12/29 10:01:28;;;;;;;2.58;1.88;;;9.00;99.90;;;;;;5053323;28;20263;-81
2021/12/29 10:03:55;;;;;;;1.77;1.67;;;9.10;99.90;;;;;;5053155;28;20202;-79
2021/12/29 10:06:22;;;;;;;1.00;0.82;;;9.20;99.90;;;;;;5052875;28;20212;-80
2021/12/29 10:08:49;;;;;;;3.78;2.63;;;9.20;99.90;;;;;;5052440;28;20956;-80
2021/12/29 10:11:19;;;;;;;3.70;2.75;;;9.20;99.90;;;;;;5052890;28;20217;-81
2021/12/29 10:13:47;;;;;;;0.40;0.30;;;9.20;99.90;;;;;;5053485;28;20576;-81
2021/12/29 10:16:17;;;;;;;1.70;1.20;;;9.20;99.90;;;;;;5033613;28;20190;-82
2021/12/29 10:18:48;;;;;;;4.35;2.58;;;9.30;99.90;;;;;;5043963;28;20202;-80
2021/12/29 10:21:17;;;;;;;4.85;4.47;;;9.30;99.90;;;;;;5049353;28;20239;-81
2021/12/29 10:23:47;;;;;;;1.52;1.42;;;9.30;99.90;;;;;;5033981;28;20209;-82
2021/12/29 10:26:17;;;;;;;1.50;1.40;;;9.20;99.90;;;;;;5033590;28;20650;-81
2021/12/29 10:28:48;;;;;;;0.50;0.50;;;9.20;99.90;;;;;;5044410;28;20198;-81
2021/12/29 10:31:17;;;;;;;1.30;1.20;;;9.20;99.90;;;;;;5053442;28;20221;-83
2021/12/29 10:33:48;;;;;;;2.83;2.70;;;9.30;99.90;;;;;;5054639;28;20194;-81
2021/12/29 10:36:20;;;;;;;0.65;0.65;;;9.30;99.90;;;;;;5044268;28;20199;-81
2021/12/29 10:38:51;;;;;;;3.42;3.22;;;9.30;99.90;;;;;;5054120;28;20576;-80
2021/12/29 10:41:18;;;;;;;0.68;0.68;;;9.40;99.90;;;;;;5056196;28;20232;-81
2021/12/29 10:43:53;;;;;;;0.50;0.50;;;9.50;99.90;;;;;;5056718;28;20667;-81
2021/12/29 10:46:21;;;;;;;0.93;0.93;;;9.50;99.90;;;;;;5056823;28;20204;-79
2021/12/29 10:48:52;;;;;;;0.50;0.50;;;9.60;99.90;;;;;;5055755;28;20652;-79
2021/12/29 10:51:27;;;;;;;1.85;1.75;;;9.60;99.90;;;;;;5051709;28;20585;-79
2021/12/29 10:54:03;;;;;;;3.10;2.70;;;9.60;99.90;;;;;;5044684;28;20216;-81
2021/12/29 10:56:30;;;;;;;5.75;5.15;;;9.60;99.90;;;;;;5053072;28;20194;-82
2021/12/29 10:58:56;;;;;;;0.98;0.98;;;9.40;99.90;;;;;;5055692;28;20619;-81
2021/12/29 11:01:23;;;;;;;3.17;2.17;;;9.40;99.90;;;;;;5047025;28;20218;-81
2021/12/29 11:03:55;;;;;;;2.03;1.92;;;9.40;99.90;;;;;;5056205;28;20682;-80
2021/12/29 11:06:24;;;;;;;2.75;2.55;;;9.40;99.90;;;;;;5056122;28;20205;-80
2021/12/29 11:08:54;;;;;;;3.72;2.80;;;9.40;99.90;;;;;;5055640;28;20212;-82
2021/12/29 11:11:25;;;;;;;1.60;1.50;;;9.40;99.90;;;;;;5039682;28;20229;-80
2021/12/29 11:13:56;;;;;;;0.40;0.30;;;9.40;99.90;;;;;;5055650;28;20190;-80
2021/12/29 11:16:23;;;;;;;0.65;0.65;;;9.50;99.90;;;;;;5055622;28;20229;-79
2021/12/29 11:18:52;;;;;;;0.40;0.30;;;9.60;99.90;;;;;;5055547;28;20201;-82
2021/12/29 11:21:26;;;;;;;1.15;1.05;;;9.70;99.90;;;;;;5054816;28;20226;-81
2021/12/29 11:23:53;;;;;;;0.40;0.30;;;9.80;99.90;;;;;;5055825;28;20191;-80
2021/12/29 11:26:29;;;;;;;1.15;1.02;;;9.80;99.90;;;;;;5054912;28;20194;-79
2021/12/29 11:29:05;;;;;;;0.82;0.82;;;9.80;99.90;;;;;;5055700;28;20224;-80
2021/12/29 11:31:38;;;;;;;2.35;1.50;;;9.80;99.90;;;;;;5055018;28;20217;-81
2021/12/29 11:34:24;;;;;;;2.38;1.48;;;9.80;99.90;;;;;;5055565;28;20217;-82
2021/12/29 11:37:02;;;;;;;2.10;2.00;;;9.90;99.90;;;;;;5055376;28;20205;-81
2021/12/29 11:39:29;;;;;;;3.58;2.55;;;9.80;99.90;;;;;;5054492;28;20202;-81
2021/12/29 11:41:55;;;;;;;1.33;1.23;;;9.90;99.90;;;;;;5048659;28;20646;-82
2021/12/29 11:44:22;;;;;;;1.48;1.08;;;10.00;99.90;;;;;;5045498;28;20194;-80
2021/12/29 11:46:49;;;;;;;3.10;1.77;;;10.10;99.90;;;;;;5054902;28;20205;-81
2021/12/29 11:49:18;;;;;;;0.75;0.75;;;10.10;99.90;;;;;;5054178;28;20195;-79
2021/12/29 11:51:51;;;;;;;1.52;1.50;;;10.10;99.90;;;;;;5054840;28;20198;-81
2021/12/29 11:54:24;;;;;;;0.40;0.30;;;10.00;99.90;;;;;;5047670;28;20202;-79
2021/12/29 11:56:51;;;;;;;0.55;0.55;;;9.90;99.90;;;;;;5054409;28;20203;-81
2021/12/29 11:59:18;;;;;;;1.05;0.93;;;10.00;99.90;;;;;;5054205;28;20195;-81
2021/12/29 12:01:53;;;;;;;4.35;2.38;;;10.00;99.90;;;;;;5054489;28;20770;-81
2021/12/29 12:04:21;;;;;;;0.40;0.30;;;10.00;99.90;;;;;;5054676;28;20193;-80
2021/12/29 12:06:49;;;;;;;1.50;1.40;;;10.00;99.90;;;;;;5046947;28;20190;-81
2021/12/29 12:09:18;;;;;;;0.68;0.68;;;9.90;99.90;;;;;;5054469;28;20195;-80
2021/12/29 12:11:51;;;;;;;0.50;0.50;;;9.80;99.90;;;;;;5054622;28;20568;-81
2021/12/29 12:14:21;;;;;;;1.70;1.13;;;9.80;99.90;;;;;;5055116;28;20194;-79
2021/12/29 12:16:55;;;;;;;0.70;0.55;;;9.80;99.90;;;;;;5054593;28;20198;-82
2021/12/29 12:19:25;;;;;;;2.97;2.25;;;9.70;99.90;;;;;;5056475;28;20194;-79
2021/12/29 12:22:04;;;;;;;0.40;0.30;;;9.80;99.90;;;;;;5046554;28;20199;-80
2021/12/29 12:24:31;;;;;;;0.50;0.50;;;9.80;99.90;;;;;;5053620;28;20206;-80
2021/12/29 12:26:59;;;;;;;0.40;0.30;;;9.90;99.90;;;;;;5056532;28;20194;-80
2021/12/29 12:29:28;;;;;;;0.40;0.40;;;9.80;99.90;;;;;;5062205;28;20215;-80
2021/12/29 12:32:07;;;;;;;0.40;0.30;;;9.80;99.90;;;;;;5063469;28;20193;-78
2021/12/29 12:34:46;;;;;;;0.40;0.30;;;9.80;99.90;;;;;;5054497;28;20205;-79
2021/12/29 12:37:19;;;;;;;0.77;0.77;;;9.80;99.90;;;;;;5053560;28;20201;-81
2021/12/29 12:40:05;;;;;;;0.40;0.30;;;9.80;99.90;;;;;;5058692;28;20249;-79
2021/12/29 12:42:33;;;;;;;1.05;1.05;;;9.80;99.90;;;;;;5061860;28;20192;-80
2021/12/29 12:45:01;;;;;;;0.40;0.30;;;9.80;99.90;;;;;;5041201;28;20198;-80
2021/12/29 12:47:33;;;;;;;0.40;0.30;;;9.70;99.90;;;;;;5053052;28;20656;-81
2021/12/29 12:50:04;;;;;;;0.40;0.30;;;9.70;99.90;;;;;;5053335;28;20217;-80
2021/12/29 12:52:41;;;;;;;0.40;0.30;;;9.70;99.90;;;;;;5054047;28;20217;-80
2021/12/29 12:55:10;;;;;;;0.40;0.40;;;9.70;99.90;;;;;;5039300;28;20196;-81
2021/12/29 12:57:39;;;;;;;0.65;0.57;;;9.70;99.90;;;;;;5052720;28;20199;-79
2021/12/29 13:00:13;;;;;;;0.40;0.30;;;9.70;99.90;;;;;;5053560;28;20214;-80
2021/12/29 13:02:42;;;;;;;0.40;0.30;;;9.70;99.90;;;;;;5055557;28;20284;-80
2021/12/29 13:05:13;;;;;;;0.40;0.30;;;9.80;99.90;;;;;;5060993;28;20197;-78
2021/12/29 13:07:43;;;;;;;1.98;1.15;;;9.80;99.90;;;;;;5062789;28;20213;-80